Time;durP1;ratioP1;P1;durP2;ratioP2;P2;SDS_P1;SDS_P2;PMS_P1;PMS_P2;Temp;Humidity;BMP_temperature;BMP_pressure;BME280_temperature;BME280_humidity;BME280_pressure;Samples;Min_cycle;Max_cycle;Signal;HPM_P1;HPM_P2
2022/05/03 00:00:03;;;;;;;42.70;34.22;;;;;;;8.32;100.00;98892.09;2042754;29;20187;-68
2022/05/03 00:01:14;;;;;;;41.33;34.33;;;;;;;8.32;100.00;98889.44;2043127;29;20249;-68
2022/05/03 00:02:18;;;;;;;46.97;34.20;;;;;;;8.32;100.00;98892.09;2043143;29;20231;-68
2022/05/03 00:03:24;;;;;;;46.53;33.53;;;;;;;8.30;100.00;98888.94;2043072;29;20218;-67
2022/05/03 00:04:32;;;;;;;47.20;33.55;;;;;;;8.28;100.00;98885.78;2043167;29;20190;-68
2022/05/03 00:05:39;;;;;;;45.72;34.03;;;;;;;8.25;100.00;98882.88;2043337;29;20190;-68
2022/05/03 00:06:48;;;;;;;43.20;34.28;;;;;;;8.19;100.00;98885.63;2042905;29;20227;-69
2022/05/03 00:07:57;;;;;;;42.47;34.47;;;;;;;8.21;100.00;98882.69;2042027;29;20258;-68
2022/05/03 00:09:03;;;;;;;44.83;33.63;;;;;;;8.16;100.00;98877.41;2034885;29;20216;-68
2022/05/03 00:10:08;;;;;;;42.70;32.58;;;;;;;8.17;100.00;98879.81;2035656;29;20607;-68
2022/05/03 00:11:14;;;;;;;43.70;33.33;;;;;;;8.18;100.00;98878.72;2043060;29;20199;-68
2022/05/03 00:12:22;;;;;;;48.78;34.30;;;;;;;8.20;100.00;98878.44;2041555;29;20203;-67
2022/05/03 00:13:28;;;;;;;45.80;34.55;;;;;;;8.22;100.00;98877.06;2034454;29;20207;-68
2022/05/03 00:14:32;;;;;;;41.08;32.65;;;;;;;8.23;100.00;98877.84;2043044;29;20210;-68
2022/05/03 00:15:35;;;;;;;44.30;34.25;;;;;;;8.20;100.00;98876.56;2049855;29;20198;-68
2022/05/03 00:16:39;;;;;;;43.10;33.70;;;;;;;8.18;100.00;98876.06;2042480;29;20191;-68
2022/05/03 00:17:44;;;;;;;46.45;34.72;;;;;;;8.13;100.00;98873.47;2034451;29;20579;-68
2022/05/03 00:18:47;;;;;;;44.05;35.08;;;;;;;8.11;100.00;98869.50;2041623;29;20310;-68
2022/05/03 00:19:50;;;;;;;50.53;35.08;;;;;;;8.09;100.00;98872.47;2042240;29;20246;-68
2022/05/03 00:20:53;;;;;;;41.83;35.13;;;;;;;8.07;100.00;98882.56;2034941;29;20246;-68
2022/05/03 00:21:55;;;;;;;44.80;34.70;;;;;;;8.05;100.00;98875.94;2033815;29;20254;-68
2022/05/03 00:22:56;;;;;;;45.20;34.00;;;;;;;8.07;100.00;98873.81;2034689;29;20207;-68
2022/05/03 00:23:58;;;;;;;42.85;34.45;;;;;;;8.06;100.00;98873.00;2033822;29;20219;-68
2022/05/03 00:25:00;;;;;;;46.33;35.03;;;;;;;8.06;100.00;98874.88;2034691;29;20219;-68
2022/05/03 00:26:06;;;;;;;44.08;35.13;;;;;;;8.04;100.00;98872.50;2042895;29;20600;-67
2022/05/03 00:27:08;;;;;;;43.53;34.25;;;;;;;8.03;100.00;98878.09;2042963;29;20187;-68
2022/05/03 00:28:10;;;;;;;46.40;35.22;;;;;;;7.99;100.00;98877.88;2042249;29;20665;-68
2022/05/03 00:29:11;;;;;;;50.17;35.53;;;;;;;7.99;100.00;98877.06;2042280;29;20570;-67
2022/05/03 00:30:13;;;;;;;46.27;34.50;;;;;;;7.99;100.00;98879.72;2033503;29;20223;-69
2022/05/03 00:31:16;;;;;;;43.60;35.22;;;;;;;7.99;100.00;98879.72;2034552;29;20738;-68
2022/05/03 00:32:22;;;;;;;50.42;36.05;;;;;;;8.00;100.00;98878.69;2042756;29;20230;-68
2022/05/03 00:33:24;;;;;;;48.33;36.28;;;;;;;8.00;100.00;98878.69;2043022;29;20282;-68
2022/05/03 00:34:27;;;;;;;43.40;34.25;;;;;;;8.03;100.00;98888.75;2042856;29;20625;-68
2022/05/03 00:35:28;;;;;;;46.95;35.05;;;;;;;8.05;100.00;98876.75;2043069;29;20187;-68
2022/05/03 00:36:31;;;;;;;47.85;35.22;;;;;;;8.04;100.00;98877.81;2034168;29;20283;-68
2022/05/03 00:37:32;;;;;;;50.92;36.75;;;;;;;8.09;100.00;98877.78;2042328;29;20203;-68
2022/05/03 00:38:36;;;;;;;48.57;36.67;;;;;;;8.10;100.00;98884.66;2050072;29;20205;-67
2022/05/03 00:39:40;;;;;;;50.15;36.97;;;;;;;8.11;100.00;98882.81;2042546;29;20202;-68
2022/05/03 00:40:45;;;;;;;51.03;37.20;;;;;;;8.11;100.00;98885.47;2042895;29;20206;-68
2022/05/03 00:41:52;;;;;;;46.35;37.15;;;;;;;8.17;100.00;98884.34;2042992;29;20577;-67
2022/05/03 00:43:12;;;;;;;49.75;38.13;;;;;;;8.21;100.00;98883.47;2042159;29;20772;-68
2022/05/03 00:45:45;;;;;;;48.40;36.22;;;;;;;8.32;100.00;98878.00;2043002;29;20183;-68
2022/05/03 00:46:49;;;;;;;48.63;36.30;;;;;;;8.33;100.00;98888.34;2042846;29;20234;-68
2022/05/03 00:47:55;;;;;;;55.97;37.33;;;;;;;8.33;100.00;98879.59;2034180;29;20555;-68
2022/05/03 00:49:13;;;;;;;47.17;36.17;;;;;;;8.39;100.00;98886.47;2035116;29;20176;-68
2022/05/03 00:50:28;;;;;;;49.88;35.88;;;;;;;8.39;100.00;98881.94;2042957;29;20271;-68
2022/05/03 00:51:45;;;;;;;45.53;35.47;;;;;;;8.40;100.00;98880.06;2033827;29;20313;-68
2022/05/03 00:52:53;;;;;;;46.97;35.58;;;;;;;8.39;100.00;98881.16;2036712;29;20180;-68
2022/05/03 00:54:04;;;;;;;51.67;36.55;;;;;;;8.37;100.00;98881.44;2034300;29;20210;-68
2022/05/03 00:55:21;;;;;;;47.08;36.78;;;;;;;8.36;100.00;98882.53;2035757;29;20199;-68
2022/05/03 00:56:39;;;;;;;49.83;36.90;;;;;;;8.34;100.00;98871.34;2042920;29;20606;-68
2022/05/03 00:57:45;;;;;;;50.47;37.60;;;;;;;8.34;100.00;98879.34;2034112;29;20207;-68
2022/05/03 00:58:59;;;;;;;48.35;35.33;;;;;;;8.33;100.00;98883.03;2034774;29;20275;-68
2022/05/03 01:00:08;;;;;;;54.33;37.55;;;;;;;8.31;100.00;98877.22;2042046;29;20687;-68
2022/05/03 01:01:14;;;;;;;55.78;38.97;;;;;;;8.30;100.00;98882.84;2042473;29;20263;-68
2022/05/03 01:02:21;;;;;;;51.22;37.58;;;;;;;8.29;100.00;98882.03;2042701;29;20627;-68
2022/05/03 01:03:25;;;;;;;45.85;37.40;;;;;;;8.27;100.00;98878.88;2033576;29;20204;-67
2022/05/03 01:04:35;;;;;;;56.05;39.45;;;;;;;8.25;100.00;98874.91;2026824;29;20204;-68
2022/05/03 01:05:48;;;;;;;51.83;39.17;;;;;;;8.25;100.00;98877.56;2027211;29;20209;-68
2022/05/03 01:07:11;;;;;;;55.72;40.17;;;;;;;8.26;100.00;98873.88;2035656;29;20235;-69
2022/05/03 01:08:20;;;;;;;49.80;38.67;;;;;;;8.28;100.00;98874.34;2042712;29;20259;-68
2022/05/03 01:09:24;;;;;;;53.83;37.90;;;;;;;8.27;100.00;98873.56;2042759;29;20180;-68
2022/05/03 01:10:33;;;;;;;51.63;37.47;;;;;;;8.27;100.00;98883.41;2033738;29;20684;-68
2022/05/03 01:11:37;;;;;;;50.22;36.50;;;;;;;8.25;100.00;98881.00;2035138;29;20689;-68
2022/05/03 01:12:51;;;;;;;46.63;36.25;;;;;;;8.26;100.00;98877.31;2041881;29;20195;-69
2022/05/03 01:13:59;;;;;;;53.63;36.88;;;;;;;8.28;100.00;98883.13;2042344;29;20227;-68
2022/05/03 01:15:08;;;;;;;44.67;35.72;;;;;;;8.27;100.00;98878.88;2042810;29;20645;-68
2022/05/03 01:16:20;;;;;;;47.55;35.83;;;;;;;8.28;100.00;98877.81;2042547;29;20254;-68
2022/05/03 01:17:25;;;;;;;43.63;35.45;;;;;;;8.33;100.00;98871.63;2042835;29;20182;-68
2022/05/03 01:18:28;;;;;;;45.28;34.85;;;;;;;8.31;100.00;98877.22;2042675;29;20183;-68
2022/05/03 01:19:48;;;;;;;42.50;34.10;;;;;;;8.30;100.00;98872.19;2034032;29;20259;-68
2022/05/03 01:20:58;;;;;;;50.22;35.58;;;;;;;8.27;100.00;98881.53;2036945;29;20642;-68
2022/05/03 01:22:09;;;;;;;46.33;35.20;;;;;;;8.26;100.00;98882.63;2042312;29;20213;-68
2022/05/03 01:23:32;;;;;;;44.83;34.78;;;;;;;8.23;100.00;98872.53;2042525;29;20171;-68
2022/05/03 01:24:49;;;;;;;44.13;35.45;;;;;;;8.18;100.00;98877.94;2042723;29;20183;-67
2022/05/03 01:25:54;;;;;;;45.47;34.83;;;;;;;8.15;100.00;98876.63;2042730;29;20179;-69
2022/05/03 01:27:13;;;;;;;45.15;34.70;;;;;;;8.13;100.00;98878.00;2041502;29;20282;-68
2022/05/03 01:28:22;;;;;;;52.17;35.55;;;;;;;8.10;100.00;98875.91;2042167;29;20590;-69
2022/05/03 01:29:29;;;;;;;46.65;35.08;;;;;;;8.09;100.00;98879.63;2042536;29;20214;-68
2022/05/03 01:30:32;;;;;;;43.60;35.28;;;;;;;8.08;100.00;98880.69;2041811;29;20263;-68
2022/05/03 01:31:32;;;;;;;49.20;36.35;;;;;;;8.07;100.00;98881.78;2041784;29;20198;-68
2022/05/03 01:32:36;;;;;;;50.07;36.30;;;;;;;8.07;100.00;98879.91;2042502;29;20203;-68
2022/05/03 01:33:42;;;;;;;49.38;35.90;;;;;;;8.07;100.00;98876.47;2042394;29;20672;-68
2022/05/03 01:34:47;;;;;;;46.35;34.88;;;;;;;8.06;100.00;98882.84;2033935;29;20286;-68
2022/05/03 01:35:51;;;;;;;48.45;35.55;;;;;;;8.04;100.00;98891.09;2034209;29;20220;-68
2022/05/03 01:37:17;;;;;;;47.13;34.97;;;;;;;8.04;100.00;98882.34;2033481;29;20232;-68
2022/05/03 01:38:22;;;;;;;43.60;34.25;;;;;;;8.06;100.00;98888.94;2026373;29;20553;-67
2022/05/03 01:39:28;;;;;;;45.30;35.80;;;;;;;8.06;100.00;98888.16;2034668;29;20180;-67
2022/05/03 01:40:45;;;;;;;47.97;36.15;;;;;;;8.07;100.00;98889.75;2026054;29;20244;-68
2022/05/03 01:41:51;;;;;;;45.75;36.05;;;;;;;8.06;100.00;98886.28;2020140;29;20298;-68
2022/05/03 01:43:08;;;;;;;51.03;35.92;;;;;;;8.04;100.00;98877.81;2026368;29;20267;-68
2022/05/03 01:44:10;;;;;;;49.42;36.30;;;;;;;8.06;100.00;98882.84;2034537;29;20176;-68
2022/05/03 01:45:13;;;;;;;45.60;35.90;;;;;;;8.08;100.00;98891.31;2033427;29;20690;-68
2022/05/03 01:46:16;;;;;;;50.55;36.47;;;;;;;8.07;100.00;98889.75;2025999;29;20211;-68
2022/05/03 01:47:25;;;;;;;47.75;35.53;;;;;;;8.07;100.00;98879.91;2026469;29;20539;-68
2022/05/03 01:50:19;;;;;;;51.22;35.60;;;;;;;8.11;100.00;98877.47;2034526;29;20180;-68
2022/05/03 01:51:26;;;;;;;43.53;34.35;;;;;;;8.09;100.00;98880.44;2025535;29;20262;-68
2022/05/03 01:52:57;;;;;;;46.72;36.00;;;;;;;8.12;100.00;98879.84;2026884;29;20694;-68
2022/05/03 01:54:25;;;;;;;46.80;36.17;;;;;;;8.10;100.00;98875.91;2034463;29;20176;-68
2022/05/03 01:55:50;;;;;;;46.90;35.38;;;;;;;8.08;100.00;98876.19;2040811;29;20254;-68
2022/05/03 01:56:58;;;;;;;48.72;35.10;;;;;;;8.08;100.00;98880.69;2038654;29;20191;-68
2022/05/03 01:58:07;;;;;;;53.22;36.58;;;;;;;8.04;100.00;98877.81;2034132;29;20187;-69
2022/05/03 01:59:25;;;;;;;49.60;35.63;;;;;;;8.07;100.00;98889.75;2033824;29;20286;-68
2022/05/03 02:00:28;;;;;;;53.88;37.55;;;;;;;8.05;100.00;98883.94;2034091;29;20681;-68
2022/05/03 02:01:45;;;;;;;50.05;37.60;;;;;;;8.08;100.00;98886.00;2034611;29;20658;-67
2022/05/03 02:03:03;;;;;;;45.70;36.53;;;;;;;8.10;100.00;98884.66;2034711;29;20172;-67
2022/05/03 02:04:12;;;;;;;52.58;37.17;;;;;;;8.10;100.00;98889.19;2034573;29;20191;-68
2022/05/03 02:05:20;;;;;;;55.63;38.15;;;;;;;8.13;100.00;98884.09;2033342;29;20595;-69
2022/05/03 02:06:30;;;;;;;52.05;37.70;;;;;;;8.11;100.00;98875.63;2030417;29;20239;-68
2022/05/03 02:07:47;;;;;;;54.00;37.08;;;;;;;8.15;100.00;98875.81;2025836;29;20287;-68
2022/05/03 02:09:02;;;;;;;54.47;38.20;;;;;;;8.16;100.00;98890.69;2028354;29;20184;-67
2022/05/03 02:10:05;;;;;;;48.47;37.45;;;;;;;8.20;100.00;98886.41;2034503;29;20266;-68
2022/05/03 02:11:37;;;;;;;52.10;38.58;;;;;;;8.20;100.00;98889.06;2033677;29;20199;-68
2022/05/03 02:12:38;;;;;;;52.33;37.67;;;;;;;8.21;100.00;98888.00;2033950;29;20212;-68
2022/05/03 02:15:16;;;;;;;52.78;38.60;;;;;;;8.23;100.00;98893.81;2033603;29;20646;-69
2022/05/03 02:16:24;;;;;;;48.13;36.40;;;;;;;8.26;100.00;98895.91;2025774;29;20211;-68
2022/05/03 02:17:42;;;;;;;55.10;37.65;;;;;;;8.26;100.00;98887.16;2026852;29;20181;-68
2022/05/03 02:18:50;;;;;;;51.83;36.30;;;;;;;8.25;100.00;98889.00;2034497;29;20172;-69
2022/05/03 02:20:17;;;;;;;52.10;37.60;;;;;;;8.24;100.00;98879.44;2033033;29;20631;-68
2022/05/03 02:21:22;;;;;;;47.08;35.72;;;;;;;8.23;100.00;98885.84;2033008;29;20235;-68
2022/05/03 02:22:59;;;;;;;45.78;35.92;;;;;;;8.26;100.00;98882.63;2033266;29;20709;-68
2022/05/03 02:24:03;;;;;;;47.58;36.90;;;;;;;8.27;100.00;98881.53;2024566;29;20287;-68
2022/05/03 02:25:11;;;;;;;51.75;37.53;;;;;;;8.28;100.00;98885.00;2034539;29;20186;-68
2022/05/03 02:26:25;;;;;;;50.80;36.33;;;;;;;8.27;100.00;98883.41;2034334;29;20180;-68
2022/05/03 02:27:28;;;;;;;45.45;35.70;;;;;;;8.24;100.00;98879.44;2034331;29;20801;-68
2022/05/03 02:28:36;;;;;;;58.20;38.40;;;;;;;8.25;100.00;98875.69;2034355;29;20325;-68
2022/05/03 02:29:45;;;;;;;46.88;37.03;;;;;;;8.25;100.00;98875.69;2034197;29;20216;-68
2022/05/03 02:30:46;;;;;;;53.70;38.38;;;;;;;8.25;100.00;98873.03;2034295;29;20183;-68
2022/05/03 02:31:51;;;;;;;48.50;37.72;;;;;;;8.23;100.00;98872.53;2034204;29;20195;-67
2022/05/03 02:33:01;;;;;;;47.90;37.95;;;;;;;8.22;100.00;98870.97;2033563;29;20254;-68
2022/05/03 02:34:12;;;;;;;49.25;37.95;;;;;;;8.20;100.00;98873.91;2033782;29;20231;-67
2022/05/03 02:35:19;;;;;;;45.70;36.67;;;;;;;8.18;100.00;98873.41;2034143;29;20584;-67
2022/05/03 02:36:26;;;;;;;47.25;36.83;;;;;;;8.18;100.00;98872.63;2033057;29;20227;-67
2022/05/03 02:37:33;;;;;;;49.78;37.53;;;;;;;8.16;100.00;98872.09;2032767;29;20214;-68
2022/05/03 02:38:37;;;;;;;50.22;37.85;;;;;;;8.18;100.00;98875.28;2026368;29;20216;-67
2022/05/03 02:39:51;;;;;;;53.22;37.80;;;;;;;8.16;100.00;98872.88;2026404;29;20283;-68
2022/05/03 02:40:53;;;;;;;51.85;38.22;;;;;;;8.14;100.00;98868.94;2025394;29;20679;-67
2022/05/03 02:41:59;;;;;;;46.13;36.92;;;;;;;8.15;100.00;98867.84;2025853;29;20204;-67
2022/05/03 02:43:01;;;;;;;50.33;38.35;;;;;;;8.15;100.00;98866.00;2033315;29;20568;-67
2022/05/03 02:44:04;;;;;;;50.83;38.60;;;;;;;8.14;100.00;98868.94;2026422;29;20188;-67
2022/05/03 02:45:07;;;;;;;52.45;39.55;;;;;;;8.11;100.00;98859.69;2025223;29;20204;-67
2022/05/03 02:46:21;;;;;;;48.72;36.90;;;;;;;8.10;100.00;98859.97;2025990;29;20199;-68
2022/05/03 02:47:37;;;;;;;52.03;39.35;;;;;;;8.07;100.00;98856.00;2033523;29;20621;-68
2022/05/03 02:48:45;;;;;;;48.95;39.33;;;;;;;8.03;100.00;98854.19;2041190;29;20237;-68
2022/05/03 02:50:04;;;;;;;50.10;40.40;;;;;;;8.03;100.00;98857.66;2039886;29;20211;-67
2022/05/03 02:51:07;;;;;;;52.45;39.70;;;;;;;7.94;100.00;98854.81;2026862;29;20651;-68
2022/05/03 02:52:17;;;;;;;52.17;39.75;;;;;;;7.93;100.00;98855.91;2033666;29;20184;-68
2022/05/03 02:53:23;;;;;;;46.47;37.22;;;;;;;7.91;100.00;98850.09;2033777;29;20544;-67
2022/05/03 02:54:34;;;;;;;48.08;36.90;;;;;;;7.93;100.00;98850.59;2034313;29;20699;-68
2022/05/03 02:55:48;;;;;;;45.80;35.97;;;;;;;7.94;100.00;98849.50;2034235;29;20191;-67
2022/05/03 02:56:52;;;;;;;45.70;34.78;;;;;;;7.91;100.00;98844.00;2033781;29;20289;-68
2022/05/03 02:57:58;;;;;;;43.65;35.50;;;;;;;7.86;100.00;98847.47;2025561;29;20200;-68
2022/05/03 02:59:05;;;;;;;47.10;36.88;;;;;;;7.82;100.00;98851.78;2033942;29;20207;-68
2022/05/03 03:01:52;;;;;;;49.67;34.72;;;;;;;7.76;100.00;98862.75;2034056;29;20202;-68
2022/05/03 03:03:27;;;;;;;39.15;33.25;;;;;;;7.70;100.00;98867.31;2034315;29;20172;-68
2022/05/03 03:04:37;;;;;;;39.45;32.88;;;;;;;7.68;100.00;98866.78;2010170;29;20226;-68
2022/05/03 03:05:41;;;;;;;42.97;34.10;;;;;;;7.73;100.00;98872.06;2034059;29;20693;-68
2022/05/03 03:06:44;;;;;;;42.58;34.08;;;;;;;7.77;100.00;98878.38;2033551;29;20247;-68
2022/05/03 03:07:50;;;;;;;44.05;35.42;;;;;;;7.78;100.00;98877.31;2025523;29;20207;-68
2022/05/03 03:08:58;;;;;;;45.28;34.97;;;;;;;7.77;100.00;98875.72;2034187;29;20199;-68
2022/05/03 03:10:04;;;;;;;48.83;36.63;;;;;;;7.77;100.00;98880.25;2040848;29;20650;-68
2022/05/03 03:11:07;;;;;;;48.88;35.25;;;;;;;7.70;100.00;98877.91;2034112;29;20184;-68
2022/05/03 03:12:20;;;;;;;51.40;36.08;;;;;;;7.67;100.00;98875.84;2034015;29;20745;-68
2022/05/03 03:13:26;;;;;;;48.70;37.13;;;;;;;7.63;100.00;98880.13;2034199;29;20259;-68
2022/05/03 03:14:35;;;;;;;47.30;36.17;;;;;;;7.67;100.00;98881.16;2026197;29;20567;-68
2022/05/03 03:15:39;;;;;;;45.22;37.50;;;;;;;7.63;100.00;98880.91;2026854;29;20543;-68
2022/05/03 03:16:46;;;;;;;46.42;35.65;;;;;;;7.61;100.00;98874.31;2033373;29;20224;-67
2022/05/03 03:17:50;;;;;;;49.95;35.97;;;;;;;7.59;100.00;98879.09;2033720;29;20176;-66
2022/05/03 03:18:53;;;;;;;50.78;36.55;;;;;;;7.61;100.00;98879.59;2034026;29;20191;-67
2022/05/03 03:20:04;;;;;;;47.47;36.38;;;;;;;7.68;100.00;98884.59;2025155;29;20208;-67
2022/05/03 03:21:06;;;;;;;46.13;35.70;;;;;;;7.70;100.00;98885.88;2025776;29;20204;-66
2022/05/03 03:22:12;;;;;;;49.65;37.45;;;;;;;7.70;100.00;98879.78;2033515;29;20627;-66
2022/05/03 03:23:18;;;;;;;47.88;37.20;;;;;;;7.69;100.00;98878.22;2034203;29;20223;-68
2022/05/03 03:24:20;;;;;;;45.22;36.00;;;;;;;7.69;100.00;98879.00;2033574;29;20214;-69
2022/05/03 03:25:23;;;;;;;48.80;35.63;;;;;;;7.70;100.00;98877.13;2025439;29;20292;-68
2022/05/03 03:26:26;;;;;;;49.38;36.47;;;;;;;7.69;100.00;98879.00;2025918;29;20200;-66
2022/05/03 03:27:29;;;;;;;50.58;37.83;;;;;;;7.69;100.00;98876.34;2025512;29;20196;-68
2022/05/03 03:28:30;;;;;;;46.50;35.97;;;;;;;7.71;100.00;98879.50;2017943;29;20211;-68
2022/05/03 03:29:34;;;;;;;49.47;36.93;;;;;;;7.74;100.00;98876.31;2025618;29;20730;-69
2022/05/03 03:30:35;;;;;;;47.13;36.80;;;;;;;7.76;100.00;98873.34;2033932;29;20226;-69
2022/05/03 03:31:38;;;;;;;46.65;35.65;;;;;;;7.76;100.00;98870.72;2034108;29;20218;-68
2022/05/03 03:32:43;;;;;;;42.10;33.80;;;;;;;7.78;100.00;98872.00;2032858;29;20207;-68
2022/05/03 03:33:45;;;;;;;46.90;36.17;;;;;;;7.79;100.00;98876.22;2033915;29;20223;-68
2022/05/03 03:34:47;;;;;;;46.45;36.83;;;;;;;7.81;100.00;98871.44;2032965;29;20211;-68
2022/05/03 03:35:51;;;;;;;45.25;35.92;;;;;;;7.82;100.00;98872.25;2033598;29;20220;-68
2022/05/03 03:37:01;;;;;;;43.47;34.88;;;;;;;7.82;100.00;98883.66;2032827;29;20224;-68
2022/05/03 03:38:03;;;;;;;45.95;35.03;;;;;;;7.86;100.00;98876.69;2026770;29;20180;-68
2022/05/03 03:39:04;;;;;;;44.88;34.97;;;;;;;7.88;100.00;98877.19;2033439;29;20200;-68
2022/05/03 03:40:08;;;;;;;52.83;36.73;;;;;;;7.88;100.00;98879.06;2041727;29;20195;-68
2022/05/03 03:41:10;;;;;;;47.20;35.90;;;;;;;7.90;100.00;98884.88;2041714;29;20191;-68
2022/05/03 03:42:11;;;;;;;46.20;35.90;;;;;;;7.93;100.00;98894.97;2033194;29;20210;-68
2022/05/03 03:43:13;;;;;;;45.78;35.03;;;;;;;7.94;100.00;98886.69;2033470;29;20192;-68
2022/05/03 03:44:16;;;;;;;49.30;36.75;;;;;;;8.02;100.00;98892.47;2041047;29;20577;-68
2022/05/03 03:45:19;;;;;;;50.60;36.58;;;;;;;8.03;100.00;98888.75;2041386;29;20222;-68
2022/05/03 03:46:21;;;;;;;54.88;37.75;;;;;;;8.06;100.00;98888.16;2041685;29;20199;-68
2022/05/03 03:47:23;;;;;;;48.35;37.33;;;;;;;8.11;100.00;98888.13;2041696;29;20191;-68
2022/05/03 03:48:24;;;;;;;52.08;37.72;;;;;;;8.15;100.00;98881.16;2041719;29;20253;-67
2022/05/03 03:49:26;;;;;;;47.03;36.33;;;;;;;8.17;100.00;98885.13;2041756;29;20191;-68
2022/05/03 03:50:28;;;;;;;51.65;36.25;;;;;;;8.22;100.00;98890.34;2032884;29;20574;-68
2022/05/03 03:51:34;;;;;;;46.85;36.25;;;;;;;8.26;100.00;98885.28;2033364;29;20618;-68
2022/05/03 03:52:37;;;;;;;50.47;37.13;;;;;;;8.27;100.00;98888.72;2041772;29;20187;-68
2022/05/03 03:53:42;;;;;;;47.78;36.08;;;;;;;8.34;100.00;98892.63;2033279;29;20647;-68
2022/05/03 03:54:42;;;;;;;48.80;36.22;;;;;;;8.39;100.00;98900.56;2033672;29;20287;-67
2022/05/03 03:55:45;;;;;;;41.80;35.87;;;;;;;8.41;100.00;98892.28;2041774;29;20195;-69
2022/05/03 03:56:46;;;;;;;43.80;35.67;;;;;;;8.46;100.00;98886.91;2041679;29;20199;-68
2022/05/03 03:57:53;;;;;;;44.30;36.03;;;;;;;8.52;100.00;98895.63;2033176;29;20272;-69
2022/05/03 03:58:54;;;;;;;49.17;37.17;;;;;;;8.57;100.00;98892.88;2034224;29;20184;-67
2022/05/03 03:59:57;;;;;;;46.47;36.07;;;;;;;8.63;100.00;98892.53;2041686;29;20275;-68
2022/05/03 04:00:59;;;;;;;46.88;36.60;;;;;;;8.68;100.00;98883.69;2040770;29;20462;-68
2022/05/03 04:02:02;;;;;;;45.53;35.97;;;;;;;8.75;100.00;98889.44;2041167;29;20202;-68
2022/05/03 04:03:04;;;;;;;48.38;37.17;;;;;;;8.79;100.00;98885.13;2041671;29;20194;-68
2022/05/03 04:04:06;;;;;;;45.72;35.75;;;;;;;8.84;100.00;98884.25;2041741;29;20275;-68
2022/05/03 04:05:11;;;;;;;44.67;35.88;;;;;;;8.89;100.00;98887.66;2041911;29;20195;-68
2022/05/03 04:06:12;;;;;;;44.97;37.05;;;;;;;8.94;100.00;98892.09;2042661;29;20230;-68
2022/05/03 04:07:18;;;;;;;52.13;37.93;;;;;;;8.95;100.00;98896.34;2043428;29;20645;-68
2022/05/03 04:08:19;;;;;;;51.65;37.75;;;;;;;8.98;100.00;98896.56;2043177;29;20192;-68
2022/05/03 04:09:21;;;;;;;47.60;36.77;;;;;;;9.00;100.00;98891.72;2043197;29;20201;-68
2022/05/03 04:10:22;;;;;;;49.03;36.58;;;;;;;9.04;100.00;98892.75;2042479;29;20490;-68
2022/05/03 04:11:25;;;;;;;47.08;35.42;;;;;;;9.08;100.00;98898.28;2042626;29;20689;-68
2022/05/03 04:12:29;;;;;;;46.88;35.55;;;;;;;9.12;100.00;98893.16;2043111;29;20281;-67
2022/05/03 04:13:31;;;;;;;46.83;35.88;;;;;;;9.16;100.00;98894.16;2042938;29;20242;-69
2022/05/03 04:14:33;;;;;;;49.60;36.58;;;;;;;9.19;100.00;98889.03;2042482;29;20589;-67
2022/05/03 04:15:36;;;;;;;48.13;35.85;;;;;;;9.23;100.00;98894.59;2041999;29;20203;-67
2022/05/03 04:16:37;;;;;;;46.63;35.88;;;;;;;9.24;100.00;98896.94;2034545;29;20272;-68
2022/05/03 04:17:39;;;;;;;41.87;35.63;;;;;;;9.26;100.00;98888.66;2034816;29;20234;-68
2022/05/03 04:18:44;;;;;;;45.85;36.30;;;;;;;9.33;100.00;98897.06;2043002;29;20195;-68
2022/05/03 04:19:47;;;;;;;42.83;34.65;;;;;;;9.35;100.00;98895.69;2043125;29;20519;-68
2022/05/03 04:20:49;;;;;;;46.25;34.83;;;;;;;9.37;100.00;98892.75;2043208;29;20665;-68
2022/05/03 04:21:52;;;;;;;41.13;33.38;;;;;;;9.38;100.00;98896.19;2033995;29;20300;-68
2022/05/03 04:22:55;;;;;;;45.90;34.90;;;;;;;9.40;100.00;98892.16;2034700;29;20726;-68
2022/05/03 04:23:56;;;;;;;44.20;33.75;;;;;;;9.40;100.00;98897.50;2034030;29;20211;-69
2022/05/03 04:24:58;;;;;;;37.50;30.87;;;;;;;9.41;100.00;98895.63;2034634;29;20188;-68
2022/05/03 04:25:59;;;;;;;40.88;31.60;;;;;;;9.41;100.00;98901.75;2043063;29;20203;-68
2022/05/03 04:27:01;;;;;;;39.53;32.53;;;;;;;9.43;100.00;98899.56;2034539;29;20251;-67
2022/05/03 04:28:02;;;;;;;44.55;34.22;;;;;;;9.43;100.00;98907.56;2026025;29;20453;-68
2022/05/03 04:29:06;;;;;;;42.25;34.22;;;;;;;9.44;100.00;98909.13;2034446;29;20191;-68
2022/05/03 04:30:09;;;;;;;41.08;33.53;;;;;;;9.48;100.00;98915.47;2034139;29;20701;-68
2022/05/03 04:31:09;;;;;;;39.00;33.40;;;;;;;9.50;100.00;98910.63;2026408;29;20690;-68
2022/05/03 04:32:15;;;;;;;43.40;33.70;;;;;;;9.52;100.00;98913.00;2039864;29;20662;-68
2022/05/03 04:33:16;;;;;;;40.65;32.30;;;;;;;9.58;100.00;98917.97;2043049;29;20290;-68
2022/05/03 04:34:18;;;;;;;40.30;34.22;;;;;;;9.61;100.00;98905.91;2033852;29;20264;-68
2022/05/03 04:35:19;;;;;;;42.15;34.20;;;;;;;9.68;100.00;98908.22;2034538;29;20682;-68
2022/05/03 04:36:21;;;;;;;39.78;33.92;;;;;;;9.73;100.00;98908.91;2042446;29;20235;-68
2022/05/03 04:37:22;;;;;;;39.33;33.80;;;;;;;9.79;100.00;98906.94;2042989;29;20195;-69
2022/05/03 04:38:25;;;;;;;45.87;34.07;;;;;;;9.83;100.00;98911.41;2041814;29;20302;-68
2022/05/03 04:39:26;;;;;;;46.13;33.67;;;;;;;9.86;100.00;98910.00;2042448;29;20202;-68
2022/05/03 04:40:30;;;;;;;42.45;34.33;;;;;;;9.88;100.00;98905.16;2043044;29;20282;-69
2022/05/03 04:41:31;;;;;;;43.72;35.58;;;;;;;9.93;100.00;98914.97;2042904;29;20255;-68
2022/05/03 04:42:34;;;;;;;42.70;34.27;;;;;;;9.93;100.00;98907.75;2042905;29;20187;-68
2022/05/03 04:43:35;;;;;;;43.40;35.00;;;;;;;9.93;100.00;98912.28;2042795;29;20215;-68
2022/05/03 04:44:37;;;;;;;43.50;35.63;;;;;;;9.92;100.00;98911.50;2042888;29;20206;-68
2022/05/03 04:45:38;;;;;;;42.63;34.13;;;;;;;9.91;100.00;98909.94;2042236;29;20207;-68
2022/05/03 04:46:41;;;;;;;41.40;35.00;;;;;;;9.92;100.00;98903.50;2034306;29;20722;-68
2022/05/03 04:47:44;;;;;;;49.20;34.10;;;;;;;9.91;100.00;98909.94;2034950;29;20564;-67
2022/05/03 04:48:47;;;;;;;46.95;35.13;;;;;;;9.90;100.00;98914.47;2041640;29;20215;-69
2022/05/03 04:49:50;;;;;;;42.72;34.75;;;;;;;9.87;100.00;98916.91;2042315;29;20195;-68
2022/05/03 04:50:50;;;;;;;40.58;34.15;;;;;;;9.93;100.00;98917.63;2042006;29;20618;-68
2022/05/03 04:51:52;;;;;;;43.97;34.73;;;;;;;9.94;100.00;98914.66;2033952;29;20290;-68
2022/05/03 04:52:53;;;;;;;40.42;35.08;;;;;;;9.95;100.00;98924.22;2035105;29;20646;-68
2022/05/03 04:53:56;;;;;;;40.10;34.37;;;;;;;9.96;100.00;98915.16;2034827;29;20243;-68
2022/05/03 04:54:57;;;;;;;44.13;35.28;;;;;;;9.95;100.00;98916.25;2034952;29;20188;-68
2022/05/03 04:55:59;;;;;;;45.73;34.97;;;;;;;9.96;100.00;98915.16;2026352;29;20690;-69
2022/05/03 04:57:02;;;;;;;47.22;35.13;;;;;;;10.01;100.00;98920.41;2026632;29;20565;-68
2022/05/03 04:58:04;;;;;;;43.50;34.00;;;;;;;10.01;100.00;98925.72;2034836;29;20198;-68
2022/05/03 04:59:04;;;;;;;44.05;34.45;;;;;;;10.01;100.00;98925.72;2026436;29;20683;-68
2022/05/03 05:00:11;;;;;;;44.30;35.13;;;;;;;10.03;100.00;98928.88;2026607;29;20617;-68
2022/05/03 05:01:12;;;;;;;42.58;35.13;;;;;;;10.04;100.00;98929.66;2034079;29;20295;-69
2022/05/03 05:02:14;;;;;;;41.60;34.72;;;;;;;10.07;100.00;98934.41;2034256;29;20670;-68
2022/05/03 05:03:14;;;;;;;42.00;35.90;;;;;;;10.08;100.00;98928.81;2025937;29;20638;-68
2022/05/03 05:04:16;;;;;;;43.83;35.60;;;;;;;10.07;100.00;98927.19;2026023;29;20219;-68
2022/05/03 05:05:17;;;;;;;41.97;35.58;;;;;;;10.09;100.00;98924.25;2034300;29;20255;-68
2022/05/03 05:06:19;;;;;;;44.67;36.50;;;;;;;10.14;100.00;98922.25;2025776;29;20231;-68
2022/05/03 05:07:21;;;;;;;46.63;36.92;;;;;;;10.14;100.00;98927.59;2026349;29;20207;-68
2022/05/03 05:08:22;;;;;;;45.08;35.50;;;;;;;10.12;100.00;98919.09;2034181;29;20231;-68
2022/05/03 05:09:25;;;;;;;47.55;37.00;;;;;;;10.13;100.00;98920.69;2034943;29;20275;-68
2022/05/03 05:10:27;;;;;;;58.33;36.78;;;;;;;10.21;100.00;98913.88;2026259;29;20212;-69